createdAt,value
2022-07-26T00:01:49.545Z,65.30
2022-07-26T00:04:19.320Z,65.34
2022-07-26T00:06:51.419Z,65.49
2022-07-26T00:09:22.992Z,65.57
2022-07-26T00:11:52.845Z,65.69
2022-07-26T00:14:22.565Z,65.84
2022-07-26T00:16:52.784Z,65.89
2022-07-26T00:19:23.100Z,66.03
2022-07-26T00:21:54.699Z,66.08
2022-07-26T00:24:24.341Z,66.22
2022-07-26T00:26:55.828Z,66.43
2022-07-26T00:29:47.543Z,66.58
2022-07-26T00:32:17.416Z,66.70
2022-07-26T00:34:46.582Z,66.84
2022-07-26T00:37:20.380Z,66.94
2022-07-26T00:39:48.740Z,67.04
2022-07-26T00:42:18.606Z,67.17
2022-07-26T00:44:49.042Z,67.23
2022-07-26T00:47:20.101Z,67.36
2022-07-26T00:49:49.221Z,67.60
2022-07-26T00:52:19.639Z,67.98
2022-07-26T00:54:49.128Z,68.24
2022-07-26T00:57:20.441Z,68.47
2022-07-26T00:59:50.769Z,68.71
2022-07-26T01:02:22.796Z,68.77
2022-07-26T01:04:51.920Z,68.98
2022-07-26T01:07:22.664Z,69.22
2022-07-26T01:09:52.547Z,69.30
2022-07-26T01:12:23.714Z,69.55
2022-07-26T01:14:52.763Z,69.61
2022-07-26T01:17:22.443Z,69.82
2022-07-26T01:19:52.054Z,69.81
2022-07-26T01:22:22.154Z,69.80
2022-07-26T01:24:52.633Z,69.71
2022-07-26T01:27:23.795Z,69.50
2022-07-26T01:29:53.651Z,69.45
2022-07-26T01:32:22.893Z,69.43
2022-07-26T01:34:53.067Z,69.30
2022-07-26T01:37:23.526Z,69.46
2022-07-26T01:39:53.638Z,69.45
2022-07-26T01:42:23.661Z,69.42
2022-07-26T01:44:53.886Z,69.57
2022-07-26T01:47:23.758Z,69.72
2022-07-26T01:49:53.486Z,69.85
2022-07-26T01:52:24.088Z,70.00
2022-07-26T01:54:53.108Z,70.03
2022-07-26T01:57:24.503Z,69.94
2022-07-26T01:59:55.676Z,69.89
2022-07-26T02:02:26.671Z,69.98
2022-07-26T02:04:58.724Z,70.04
2022-07-26T02:07:31.767Z,70.14
2022-07-26T02:10:02.306Z,70.28
2022-07-26T02:12:32.561Z,70.40
2022-07-26T02:15:01.720Z,70.52
2022-07-26T02:17:30.963Z,70.61
2022-07-26T02:20:00.697Z,70.79
2022-07-26T02:22:30.330Z,70.88
2022-07-26T02:25:04.740Z,70.90
2022-07-26T02:27:31.394Z,70.69
2022-07-26T02:30:01.977Z,70.64
2022-07-26T02:32:32.324Z,70.69
2022-07-26T02:35:02.294Z,70.76
2022-07-26T02:37:31.438Z,70.79
2022-07-26T02:40:03.131Z,70.84
2022-07-26T02:42:32.933Z,70.84
2022-07-26T02:45:02.407Z,70.77
2022-07-26T02:47:33.169Z,70.91
2022-07-26T02:50:02.778Z,71.10
2022-07-26T02:52:33.035Z,71.28
2022-07-26T02:55:02.624Z,71.29
2022-07-26T02:57:31.702Z,71.29
2022-07-26T03:00:03.668Z,71.26
2022-07-26T03:02:33.637Z,71.41
2022-07-26T03:05:03.423Z,71.47
2022-07-26T03:07:33.575Z,71.38
2022-07-26T03:10:02.873Z,71.32
2022-07-26T03:12:32.831Z,71.15
2022-07-26T03:15:01.962Z,71.04
2022-07-26T03:17:32.404Z,71.00
2022-07-26T03:20:02.464Z,70.97
2022-07-26T03:22:32.214Z,70.91
2022-07-26T03:25:02.549Z,71.00
2022-07-26T03:27:33.400Z,70.92
2022-07-26T03:30:03.252Z,70.68
2022-07-26T03:32:32.360Z,70.69
2022-07-26T03:35:01.499Z,70.67
2022-07-26T03:37:45.084Z,70.60
2022-07-26T03:40:02.777Z,70.67
2022-07-26T03:42:32.463Z,70.72
2022-07-26T03:45:02.303Z,70.82
2022-07-26T03:47:31.940Z,70.90
2022-07-26T03:50:02.460Z,70.92
2022-07-26T03:52:32.964Z,70.82
2022-07-26T03:55:04.682Z,70.63
2022-07-26T03:57:34.928Z,70.57
2022-07-26T04:00:06.268Z,70.38
2022-07-26T04:02:37.671Z,70.12
2022-07-26T04:05:07.444Z,69.90
2022-07-26T04:07:53.336Z,69.70
2022-07-26T04:10:17.320Z,69.47
2022-07-26T04:12:48.706Z,69.31
2022-07-26T04:15:19.341Z,69.27
2022-07-26T04:17:49.859Z,69.12
2022-07-26T04:20:20.204Z,69.01
2022-07-26T04:22:51.405Z,68.85
2022-07-26T04:25:21.840Z,68.74
2022-07-26T04:27:52.188Z,68.65
2022-07-26T04:30:21.944Z,68.45
2022-07-26T04:32:51.843Z,68.35
2022-07-26T04:35:22.125Z,68.22
2022-07-26T04:37:51.083Z,68.16
2022-07-26T04:40:23.457Z,67.97
2022-07-26T04:42:52.671Z,67.91
2022-07-26T04:45:22.559Z,67.87
2022-07-26T04:47:52.336Z,67.67
2022-07-26T04:50:22.719Z,67.50
2022-07-26T04:52:53.108Z,67.49
2022-07-26T04:55:23.714Z,67.33
2022-07-26T04:57:53.361Z,67.33
2022-07-26T05:00:24.792Z,67.19
2022-07-26T05:02:57.665Z,67.28
2022-07-26T05:05:30.092Z,67.09
2022-07-26T05:08:02.875Z,66.59
2022-07-26T05:10:37.339Z,66.02
2022-07-26T05:13:08.422Z,65.61
2022-07-26T05:15:38.743Z,64.53
2022-07-26T05:18:10.666Z,63.98
2022-07-26T05:20:40.613Z,63.09
2022-07-26T05:23:11.232Z,62.38
2022-07-26T05:25:41.705Z,61.76
2022-07-26T05:28:11.615Z,61.11
2022-07-26T05:30:40.873Z,60.56
2022-07-26T05:33:11.215Z,59.94
2022-07-26T05:35:42.001Z,58.92
2022-07-26T05:38:10.845Z,58.45
2022-07-26T05:40:43.165Z,58.14
2022-07-26T05:43:13.726Z,57.55
2022-07-26T05:45:43.479Z,56.87
2022-07-26T05:48:12.905Z,55.77
2022-07-26T05:50:42.433Z,54.88
2022-07-26T05:53:12.865Z,54.05
2022-07-26T05:55:42.722Z,53.69
2022-07-26T05:58:12.089Z,53.21
2022-07-26T06:00:45.400Z,52.79
2022-07-26T06:03:23.629Z,52.05
2022-07-26T06:05:56.602Z,51.45
2022-07-26T06:08:26.826Z,51.22
2022-07-26T06:10:57.075Z,50.17
2022-07-26T06:13:26.708Z,49.43
2022-07-26T06:15:56.065Z,49.69
2022-07-26T06:18:25.540Z,49.40
2022-07-26T06:20:55.825Z,49.06
2022-07-26T06:23:33.976Z,48.71
2022-07-26T06:25:58.822Z,48.16
2022-07-26T06:28:28.849Z,48.32
2022-07-26T06:30:58.965Z,48.09
2022-07-26T06:33:29.334Z,47.36
2022-07-26T06:35:58.868Z,46.52
2022-07-26T06:38:29.285Z,47.00
2022-07-26T06:41:01.284Z,46.48
2022-07-26T06:43:30.523Z,46.15
2022-07-26T06:46:00.953Z,45.67
2022-07-26T06:48:30.534Z,45.12
2022-07-26T06:51:01.248Z,44.61
2022-07-26T06:53:31.497Z,44.76
2022-07-26T06:56:01.080Z,44.55
2022-07-26T06:58:31.522Z,44.99
2022-07-26T07:01:01.790Z,45.10
2022-07-26T07:03:31.724Z,44.73
2022-07-26T07:06:01.876Z,44.29
2022-07-26T07:08:32.470Z,44.35
2022-07-26T07:11:02.777Z,43.74
2022-07-26T07:13:34.223Z,43.86
2022-07-26T07:16:04.213Z,43.84
2022-07-26T07:18:35.703Z,43.50
2022-07-26T07:21:05.952Z,43.34
2022-07-26T07:23:35.534Z,43.15
2022-07-26T07:26:04.838Z,43.43
2022-07-26T07:28:36.031Z,42.42
2022-07-26T07:31:06.304Z,42.42
2022-07-26T07:33:43.607Z,42.74
2022-07-26T07:36:10.425Z,42.90
2022-07-26T07:38:42.834Z,42.86
2022-07-26T07:41:13.448Z,41.84
2022-07-26T07:43:46.075Z,41.74
2022-07-26T07:46:17.253Z,41.74
2022-07-26T07:48:47.664Z,41.53
2022-07-26T07:51:19.235Z,41.58
2022-07-26T07:53:56.634Z,41.80
2022-07-26T07:56:22.148Z,41.48
2022-07-26T07:58:54.468Z,40.76
2022-07-26T08:01:24.713Z,40.42
2022-07-26T08:03:57.112Z,39.28
2022-07-26T08:06:27.549Z,38.96
2022-07-26T08:08:57.979Z,38.55
2022-07-26T08:11:30.027Z,38.57
2022-07-26T08:13:59.786Z,38.08
2022-07-26T08:16:30.670Z,37.24
2022-07-26T08:19:01.179Z,37.35
2022-07-26T08:21:33.693Z,37.43
2022-07-26T08:24:04.092Z,37.45
2022-07-26T08:26:33.512Z,36.74
2022-07-26T08:29:04.038Z,37.31
2022-07-26T08:31:34.219Z,37.03
2022-07-26T08:34:04.921Z,36.05
2022-07-26T08:36:34.988Z,36.22
2022-07-26T08:39:04.442Z,35.85
2022-07-26T08:41:33.369Z,35.07
2022-07-26T08:44:08.837Z,34.38
2022-07-26T08:46:39.515Z,34.97
2022-07-26T08:49:11.054Z,34.18
2022-07-26T08:51:43.662Z,34.40
2022-07-26T08:54:15.658Z,34.84
2022-07-26T08:56:53.440Z,34.60
2022-07-26T08:59:24.784Z,34.49
2022-07-26T09:02:02.468Z,34.26
2022-07-26T09:04:43.989Z,34.49
2022-07-26T09:07:17.026Z,34.50
2022-07-26T09:10:01.179Z,33.66
2022-07-26T09:12:32.526Z,33.90
2022-07-26T09:15:07.369Z,34.45
2022-07-26T09:17:46.973Z,33.21
2022-07-26T09:20:24.372Z,33.36
2022-07-26T09:23:10.170Z,33.57
2022-07-26T09:25:43.675Z,33.64
2022-07-26T09:28:26.463Z,34.57
2022-07-26T09:31:03.055Z,34.60
2022-07-26T09:33:50.760Z,34.61
2022-07-26T09:36:21.530Z,35.12
2022-07-26T09:38:53.401Z,34.83
2022-07-26T09:41:27.784Z,35.32
2022-07-26T09:44:00.124Z,35.96
2022-07-26T09:46:30.614Z,35.89
2022-07-26T09:49:11.229Z,36.08
2022-07-26T09:51:42.584Z,35.92
2022-07-26T09:54:13.197Z,36.05
2022-07-26T09:56:51.665Z,36.24
2022-07-26T09:59:25.444Z,36.79
2022-07-26T10:01:56.352Z,37.12
2022-07-26T10:04:25.759Z,37.31
2022-07-26T10:07:02.189Z,37.59
2022-07-26T10:09:55.405Z,37.36
2022-07-26T10:12:30.600Z,36.98
2022-07-26T10:14:59.199Z,36.78
2022-07-26T10:17:40.926Z,37.45
2022-07-26T10:20:19.446Z,38.04
2022-07-26T10:22:48.115Z,37.33
2022-07-26T10:25:26.017Z,36.88
2022-07-26T10:27:57.650Z,37.19
2022-07-26T10:30:34.251Z,37.34
2022-07-26T10:33:09.753Z,37.50
2022-07-26T10:35:41.446Z,37.47
2022-07-26T10:38:26.134Z,37.38
2022-07-26T10:41:02.937Z,36.85
2022-07-26T10:43:42.289Z,37.15
2022-07-26T10:46:24.353Z,36.56
2022-07-26T10:49:05.089Z,36.37
2022-07-26T10:51:38.218Z,36.82
2022-07-26T10:54:13.685Z,37.18
2022-07-26T10:56:43.596Z,37.00
2022-07-26T10:59:12.389Z,36.87
2022-07-26T11:01:45.263Z,36.86
2022-07-26T11:04:22.208Z,36.35
2022-07-26T11:06:50.811Z,36.80
2022-07-26T11:09:21.131Z,37.14
2022-07-26T11:11:52.175Z,37.38
2022-07-26T11:14:21.605Z,36.93
2022-07-26T11:16:55.918Z,36.36
2022-07-26T11:19:26.426Z,36.39
2022-07-26T11:22:01.682Z,36.55
2022-07-26T11:24:31.723Z,36.75
2022-07-26T11:27:04.882Z,36.48
2022-07-26T11:29:38.961Z,37.03
2022-07-26T11:32:14.737Z,36.67
2022-07-26T11:34:41.099Z,36.09
2022-07-26T11:37:10.909Z,36.28
2022-07-26T11:39:40.367Z,35.88
2022-07-26T11:42:11.528Z,35.48
2022-07-26T11:44:45.030Z,35.65
2022-07-26T11:47:20.456Z,34.74
2022-07-26T11:50:12.424Z,35.24
2022-07-26T11:52:25.618Z,35.37
2022-07-26T11:54:54.911Z,35.59
2022-07-26T11:57:30.171Z,35.07
2022-07-26T12:00:01.965Z,35.06
2022-07-26T12:02:34.322Z,35.34
2022-07-26T12:05:20.166Z,35.34
2022-07-26T12:08:03.904Z,35.46
2022-07-26T12:10:34.173Z,35.15
2022-07-26T12:13:16.190Z,35.35
2022-07-26T12:15:52.181Z,35.05
2022-07-26T12:18:24.592Z,35.28
2022-07-26T12:21:06.727Z,35.72
2022-07-26T12:23:50.995Z,35.13
2022-07-26T12:26:28.582Z,35.01
2022-07-26T12:29:00.544Z,35.14
2022-07-26T12:31:32.865Z,34.88
2022-07-26T12:34:02.511Z,34.34
2022-07-26T12:36:33.289Z,33.97
2022-07-26T12:39:03.154Z,33.79
2022-07-26T12:41:38.723Z,33.75
2022-07-26T12:44:10.633Z,34.15
2022-07-26T12:46:39.972Z,34.33
2022-07-26T12:49:10.830Z,34.36
2022-07-26T12:51:41.844Z,34.24
2022-07-26T12:54:12.484Z,34.60
2022-07-26T12:56:42.626Z,33.50
2022-07-26T12:59:17.620Z,33.80
2022-07-26T13:01:44.255Z,33.67
2022-07-26T13:04:13.822Z,33.29
2022-07-26T13:06:43.270Z,33.71
2022-07-26T13:09:12.741Z,33.72
2022-07-26T13:11:43.750Z,33.69
2022-07-26T13:14:17.305Z,33.57
2022-07-26T13:16:48.832Z,33.34
2022-07-26T13:19:18.757Z,33.10
2022-07-26T13:21:52.757Z,33.25
2022-07-26T13:24:20.149Z,33.16
2022-07-26T13:26:50.305Z,32.84
2022-07-26T13:29:20.085Z,33.15
2022-07-26T13:31:50.792Z,33.54
2022-07-26T13:34:20.536Z,33.33
2022-07-26T13:36:50.204Z,33.21
2022-07-26T13:39:20.707Z,33.31
2022-07-26T13:41:50.200Z,33.42
2022-07-26T13:44:22.186Z,33.47
2022-07-26T13:46:51.420Z,33.09
2022-07-26T13:49:21.388Z,32.89
2022-07-26T13:51:58.707Z,33.06
2022-07-26T13:54:33.056Z,33.45
2022-07-26T13:57:04.246Z,33.30
2022-07-26T13:59:34.101Z,32.98
2022-07-26T14:02:04.699Z,33.11
2022-07-26T14:04:34.907Z,33.36
2022-07-26T14:07:05.486Z,33.67
2022-07-26T14:09:34.995Z,33.96
2022-07-26T14:12:06.210Z,33.90
2022-07-26T14:14:38.141Z,33.80
2022-07-26T14:17:08.140Z,33.84
2022-07-26T14:19:37.418Z,33.85
2022-07-26T14:22:08.077Z,33.88
2022-07-26T14:24:38.011Z,34.00
2022-07-26T14:27:07.406Z,34.17
2022-07-26T14:29:37.395Z,34.26
2022-07-26T14:32:07.557Z,34.52
2022-07-26T14:34:36.720Z,34.53
2022-07-26T14:37:43.571Z,34.79
2022-07-26T14:39:40.676Z,34.88
2022-07-26T14:42:10.582Z,35.01
2022-07-26T14:44:44.387Z,34.85
2022-07-26T14:47:13.782Z,34.96
2022-07-26T14:49:43.318Z,34.72
2022-07-26T14:52:12.643Z,34.74
2022-07-26T14:54:43.357Z,34.64
2022-07-26T14:57:13.764Z,34.52
2022-07-26T14:59:43.407Z,34.62
2022-07-26T15:02:13.359Z,34.59
2022-07-26T15:04:42.734Z,34.77
2022-07-26T15:07:13.123Z,34.75
2022-07-26T15:09:43.252Z,34.86
2022-07-26T15:12:13.755Z,34.68
2022-07-26T15:14:44.864Z,34.73
2022-07-26T15:17:15.177Z,34.75
2022-07-26T15:19:44.331Z,34.56
2022-07-26T15:22:14.790Z,34.61
2022-07-26T15:24:44.574Z,34.51
2022-07-26T15:27:14.250Z,34.67
2022-07-26T15:29:43.633Z,34.81
2022-07-26T15:32:13.678Z,34.88
2022-07-26T15:34:43.488Z,35.11
2022-07-26T15:37:13.110Z,35.49
2022-07-26T15:39:42.657Z,35.71
2022-07-26T15:42:11.731Z,35.92
2022-07-26T15:44:43.414Z,35.94
2022-07-26T15:47:26.166Z,36.08
2022-07-26T15:49:48.097Z,36.48
2022-07-26T15:52:16.897Z,36.62
2022-07-26T15:54:45.976Z,36.76
2022-07-26T15:57:16.436Z,36.82
2022-07-26T15:59:46.700Z,36.87
2022-07-26T16:02:17.748Z,36.85
2022-07-26T16:04:48.111Z,36.76
2022-07-26T16:07:18.486Z,36.64
2022-07-26T16:09:48.025Z,36.63
2022-07-26T16:12:18.588Z,36.50
2022-07-26T16:14:48.169Z,36.29
2022-07-26T16:17:17.703Z,36.26
2022-07-26T16:19:47.879Z,36.42
2022-07-26T16:22:19.187Z,36.66
2022-07-26T16:24:49.289Z,37.00
2022-07-26T16:27:19.402Z,37.00
2022-07-26T16:29:52.098Z,37.22
2022-07-26T16:32:21.409Z,37.17
2022-07-26T16:34:51.564Z,37.06
2022-07-26T16:37:20.595Z,37.02
2022-07-26T16:39:52.201Z,36.86
2022-07-26T16:42:21.695Z,36.44
2022-07-26T16:44:51.232Z,36.56
2022-07-26T16:47:23.438Z,36.66
2022-07-26T16:49:52.517Z,36.57
2022-07-26T16:52:22.661Z,36.32
2022-07-26T16:54:53.679Z,36.45
2022-07-26T16:57:24.073Z,36.23
2022-07-26T16:59:55.204Z,35.88
2022-07-26T17:02:25.138Z,35.87
2022-07-26T17:04:57.188Z,35.91
2022-07-26T17:07:28.266Z,35.99
2022-07-26T17:09:57.979Z,36.01
2022-07-26T17:12:27.963Z,36.26
2022-07-26T17:14:59.395Z,36.27
2022-07-26T17:17:28.785Z,36.42
2022-07-26T17:19:58.774Z,36.41
2022-07-26T17:22:28.972Z,36.49
2022-07-26T17:24:59.853Z,36.54
2022-07-26T17:27:29.952Z,36.69
2022-07-26T17:30:06.071Z,36.69
2022-07-26T17:32:31.838Z,36.69
2022-07-26T17:35:01.034Z,36.65
2022-07-26T17:37:30.421Z,37.17
2022-07-26T17:40:02.211Z,37.24
2022-07-26T17:42:34.095Z,37.34
2022-07-26T17:45:05.027Z,37.62
2022-07-26T17:47:34.709Z,38.40
2022-07-26T17:50:35.277Z,39.09
2022-07-26T17:52:38.370Z,39.75
2022-07-26T17:55:08.665Z,40.36
2022-07-26T17:57:40.048Z,40.54
2022-07-26T18:00:10.859Z,40.81
2022-07-26T18:02:41.237Z,41.04
2022-07-26T18:05:11.713Z,41.29
2022-07-26T18:08:02.483Z,41.58
2022-07-26T18:10:32.978Z,41.89
2022-07-26T18:13:04.034Z,42.22
2022-07-26T18:15:34.927Z,42.48
2022-07-26T18:18:07.640Z,42.61
2022-07-26T18:20:38.514Z,42.80
2022-07-26T18:23:08.683Z,42.99
2022-07-26T18:25:39.495Z,43.39
2022-07-26T18:28:10.746Z,43.52
2022-07-26T18:30:40.507Z,43.81
2022-07-26T18:33:13.025Z,43.86
2022-07-26T18:35:43.440Z,44.12
2022-07-26T18:38:12.643Z,44.29
2022-07-26T18:40:41.906Z,44.49
2022-07-26T18:43:11.391Z,44.59
2022-07-26T18:45:41.438Z,44.79
2022-07-26T18:48:13.059Z,45.06
2022-07-26T18:50:43.845Z,45.29
2022-07-26T18:53:13.241Z,45.43
2022-07-26T18:55:43.998Z,45.61
2022-07-26T18:58:13.881Z,45.90
2022-07-26T19:00:43.904Z,45.98
2022-07-26T19:03:16.437Z,45.94
2022-07-26T19:05:47.265Z,46.16
2022-07-26T19:08:16.458Z,46.33
2022-07-26T19:10:46.508Z,46.52
2022-07-26T19:13:17.893Z,46.72
2022-07-26T19:15:48.144Z,47.04
2022-07-26T19:18:17.611Z,47.33
2022-07-26T19:20:47.589Z,47.52
2022-07-26T19:23:17.704Z,47.65
2022-07-26T19:25:47.285Z,47.75
2022-07-26T19:28:18.229Z,47.89
2022-07-26T19:30:48.231Z,48.02
2022-07-26T19:33:18.331Z,48.26
2022-07-26T19:35:48.362Z,48.31
2022-07-26T19:38:18.960Z,48.37
2022-07-26T19:40:48.532Z,48.40
2022-07-26T19:43:19.160Z,48.55
2022-07-26T19:45:49.904Z,48.68
2022-07-26T19:48:19.945Z,48.98
2022-07-26T19:50:50.901Z,49.10
2022-07-26T19:53:21.157Z,49.34
2022-07-26T19:55:50.281Z,49.42
2022-07-26T19:58:21.424Z,49.54
2022-07-26T20:00:52.796Z,49.66
2022-07-26T20:03:22.823Z,49.84
2022-07-26T20:05:53.770Z,50.03
2022-07-26T20:08:24.767Z,50.24
2022-07-26T20:10:55.132Z,50.38
2022-07-26T20:13:26.037Z,50.53
2022-07-26T20:15:56.237Z,50.74
2022-07-26T20:18:28.157Z,51.07
2022-07-26T20:20:57.636Z,51.26
2022-07-26T20:23:28.823Z,51.58
2022-07-26T20:25:59.104Z,51.85
2022-07-26T20:28:28.837Z,52.19
2022-07-26T20:30:58.020Z,52.41
2022-07-26T20:33:28.277Z,52.70
2022-07-26T20:35:58.258Z,52.84
2022-07-26T20:38:28.173Z,52.84
2022-07-26T20:40:58.115Z,52.96
2022-07-26T20:43:31.611Z,53.11
2022-07-26T20:46:01.909Z,53.24
2022-07-26T20:48:33.661Z,53.44
2022-07-26T20:51:05.378Z,53.65
2022-07-26T20:53:36.878Z,53.76
2022-07-26T20:56:07.289Z,53.88
2022-07-26T20:58:37.997Z,54.06
2022-07-26T21:01:07.757Z,54.31
2022-07-26T21:03:37.998Z,54.56
2022-07-26T21:06:08.380Z,54.72
2022-07-26T21:08:40.286Z,54.91
2022-07-26T21:11:10.791Z,55.05
2022-07-26T21:13:41.458Z,55.19
2022-07-26T21:16:11.163Z,55.16
2022-07-26T21:18:43.393Z,55.29
2022-07-26T21:21:16.310Z,55.24
2022-07-26T21:23:46.082Z,55.40
2022-07-26T21:26:15.066Z,55.58
2022-07-26T21:28:48.574Z,55.79
2022-07-26T21:31:19.386Z,56.00
2022-07-26T21:33:49.028Z,56.15
2022-07-26T21:36:19.144Z,56.09
2022-07-26T21:38:48.471Z,56.19
2022-07-26T21:41:21.820Z,56.14
2022-07-26T21:43:51.694Z,56.21
2022-07-26T21:46:28.886Z,56.45
2022-07-26T21:49:00.991Z,56.62
2022-07-26T21:51:31.278Z,56.75
2022-07-26T21:54:00.301Z,56.91
2022-07-26T21:56:32.770Z,56.86
2022-07-26T21:59:03.421Z,56.85
2022-07-26T22:01:33.338Z,56.91
2022-07-26T22:04:03.135Z,57.07
2022-07-26T22:06:32.512Z,57.38
2022-07-26T22:09:02.550Z,57.58
2022-07-26T22:11:32.952Z,57.68
2022-07-26T22:14:03.234Z,57.79
2022-07-26T22:16:33.913Z,57.97
2022-07-26T22:19:03.022Z,58.18
2022-07-26T22:21:33.397Z,58.50
2022-07-26T22:24:02.461Z,58.80
2022-07-26T22:26:33.469Z,59.02
2022-07-26T22:29:03.860Z,59.18
2022-07-26T22:31:33.369Z,59.34
2022-07-26T22:34:03.354Z,59.57
2022-07-26T22:36:32.123Z,59.67
2022-07-26T22:39:03.087Z,59.75
2022-07-26T22:41:46.188Z,59.88
2022-07-26T22:44:05.436Z,60.03
2022-07-26T22:46:37.968Z,60.21
2022-07-26T22:49:12.815Z,60.41
2022-07-26T22:51:40.819Z,60.54
2022-07-26T22:54:09.981Z,60.63
2022-07-26T22:56:39.111Z,60.51
2022-07-26T22:59:09.381Z,60.43
2022-07-26T23:01:40.622Z,60.45
2022-07-26T23:04:10.414Z,60.56
2022-07-26T23:06:40.690Z,60.74
2022-07-26T23:09:11.654Z,61.00
2022-07-26T23:11:41.119Z,61.29
2022-07-26T23:14:11.416Z,61.29
2022-07-26T23:16:41.367Z,61.33
2022-07-26T23:19:11.617Z,61.47
2022-07-26T23:21:42.768Z,61.62
2022-07-26T23:24:12.582Z,61.72
2022-07-26T23:26:42.504Z,61.81
2022-07-26T23:29:12.739Z,61.86
2022-07-26T23:31:42.798Z,61.96
2022-07-26T23:34:11.947Z,62.23
2022-07-26T23:36:42.282Z,62.44
2022-07-26T23:39:12.350Z,62.50
2022-07-26T23:41:42.678Z,62.71
2022-07-26T23:44:11.670Z,62.87
2022-07-26T23:46:42.304Z,62.89
2022-07-26T23:49:13.168Z,62.92
2022-07-26T23:51:44.459Z,63.12
2022-07-26T23:54:13.561Z,63.10
2022-07-26T23:56:44.773Z,63.07
2022-07-26T23:59:15.960Z,63.12
